Time;durP1;ratioP1;P1;durP2;ratioP2;P2;SDS_P1;SDS_P2;PMS_P1;PMS_P2;Temp;Humidity;BMP_temperature;BMP_pressure;BME280_temperature;BME280_humidity;BME280_pressure;Samples;Min_cycle;Max_cycle;Signal;HPM_P1;HPM_P2
2023/11/24 00:02:13;;;;;;;2.00;0.47;;;;;;;7.73;92.31;99606.28;5053720;28;20485;-73
2023/11/24 00:04:40;;;;;;;1.80;0.40;;;;;;;7.70;93.53;99596.16;5054053;28;20835;-73
2023/11/24 00:07:08;;;;;;;2.83;0.80;;;;;;;7.72;93.18;99603.91;5057931;28;20454;-73
2023/11/24 00:09:35;;;;;;;3.30;0.60;;;;;;;7.70;94.07;99604.22;5057430;28;20462;-74
2023/11/24 00:12:02;;;;;;;2.53;0.60;;;;;;;7.75;94.24;99597.94;5057443;28;20930;-73
2023/11/24 00:14:29;;;;;;;2.00;0.60;;;;;;;7.79;94.47;99609.66;5057309;28;20612;-73
2023/11/24 00:16:57;;;;;;;2.27;0.77;;;;;;;7.86;92.97;99609.25;5057340;28;20437;-73
2023/11/24 00:19:24;;;;;;;2.33;0.70;;;;;;;7.82;93.94;99601.75;5057518;28;20446;-74
2023/11/24 00:21:51;;;;;;;1.80;0.40;;;;;;;7.84;92.29;99615.75;5057236;28;20482;-73
2023/11/24 00:24:19;;;;;;;1.90;0.60;;;;;;;7.83;92.34;99618.72;5057142;28;20485;-73
2023/11/24 00:26:46;;;;;;;1.90;0.40;;;;;;;7.73;92.37;99632.47;5057178;28;20449;-73
2023/11/24 00:29:13;;;;;;;2.97;0.57;;;;;;;7.75;91.93;99636.44;5056735;28;20442;-73
2023/11/24 00:31:39;;;;;;;1.80;0.50;;;;;;;7.70;92.03;99631.19;5057282;28;20864;-73
2023/11/24 00:34:07;;;;;;;1.97;0.50;;;;;;;7.61;91.28;99641.06;5056862;28;20458;-73
2023/11/24 00:36:35;;;;;;;1.80;0.40;;;;;;;7.52;92.39;99635.59;5056829;28;20438;-74
2023/11/24 00:39:04;;;;;;;1.90;0.50;;;;;;;7.48;92.96;99648.13;5056586;28;20503;-73
2023/11/24 00:41:32;;;;;;;1.90;0.40;;;;;;;7.48;92.31;99633.81;5057165;28;20500;-73
2023/11/24 00:44:01;;;;;;;1.80;0.40;;;;;;;7.46;92.53;99639.53;5057121;28;20466;-74
2023/11/24 00:46:28;;;;;;;4.43;1.13;;;;;;;7.44;91.90;99622.88;5057139;28;20516;-73
2023/11/24 00:48:56;;;;;;;3.70;0.83;;;;;;;7.49;90.80;99616.59;5056733;28;20795;-72
2023/11/24 00:51:22;;;;;;;2.23;0.53;;;;;;;7.44;91.13;99619.41;5056695;28;20473;-73
2023/11/24 00:53:49;;;;;;;2.27;0.43;;;;;;;7.46;91.65;99619.88;5056452;28;20498;-73
2023/11/24 00:56:16;;;;;;;2.23;0.70;;;;;;;7.45;90.65;99621.78;5056348;28;20942;-73
2023/11/24 00:58:44;;;;;;;1.90;0.40;;;;;;;7.44;90.61;99616.69;5056582;28;20537;-73
2023/11/24 01:01:11;;;;;;;1.80;0.40;;;;;;;7.44;90.06;99605.91;5056505;28;20457;-73
2023/11/24 01:03:38;;;;;;;2.10;0.70;;;;;;;7.32;90.86;99601.06;5056152;28;20489;-73
2023/11/24 01:06:05;;;;;;;2.60;0.40;;;;;;;7.33;90.94;99608.81;5056356;28;20470;-73
2023/11/24 01:08:32;;;;;;;3.50;0.50;;;;;;;7.34;90.61;99602.34;5055971;28;20454;-73
2023/11/24 01:11:01;;;;;;;1.80;0.40;;;;;;;7.32;90.44;99612.63;5056246;28;20449;-73
2023/11/24 01:13:31;;;;;;;1.90;0.40;;;;;;;7.23;90.61;99600.97;5056142;28;20454;-73
2023/11/24 01:15:59;;;;;;;13.40;0.83;;;;;;;7.22;90.99;99602.09;5056082;28;20464;-73
2023/11/24 01:18:27;;;;;;;2.07;0.50;;;;;;;7.18;91.42;99603.78;5056165;28;20470;-73
2023/11/24 01:20:54;;;;;;;2.30;0.40;;;;;;;7.19;91.69;99608.06;5056462;28;20446;-73
2023/11/24 01:23:20;;;;;;;6.80;0.80;;;;;;;7.14;91.28;99604.69;5055904;28;20532;-72
2023/11/24 01:25:47;;;;;;;1.80;0.47;;;;;;;7.19;91.42;99609.97;5055704;28;20600;-72
2023/11/24 01:28:14;;;;;;;2.10;0.60;;;;;;;7.19;91.34;99602.69;5055893;28;20454;-73
2023/11/24 01:30:42;;;;;;;2.53;0.80;;;;;;;7.18;92.26;99603.78;5055883;28;20531;-73
2023/11/24 01:33:10;;;;;;;1.70;0.30;;;;;;;7.06;92.62;99603.50;5055794;28;20438;-72
2023/11/24 01:35:37;;;;;;;1.83;0.40;;;;;;;7.14;93.10;99599.31;5056119;28;20449;-72
2023/11/24 01:38:04;;;;;;;1.70;0.30;;;;;;;7.09;93.37;99600.22;5055901;28;20466;-73
2023/11/24 01:40:31;;;;;;;3.00;0.70;;;;;;;7.07;94.41;99611.25;5055401;28;20934;-73
2023/11/24 01:42:57;;;;;;;4.23;0.90;;;;;;;6.96;96.45;99639.50;5055706;28;20481;-73
2023/11/24 01:45:24;;;;;;;1.90;0.40;;;;;;;6.73;100.00;99670.91;5055552;28;20454;-73
2023/11/24 01:47:52;;;;;;;1.80;0.60;;;;;;;6.00;100.00;99682.38;5055459;28;20452;-74
2023/11/24 01:50:21;;;;;;;1.80;0.30;;;;;;;5.51;100.00;99683.59;5055504;28;20533;-75
2023/11/24 01:52:48;;;;;;;2.00;0.50;;;;;;;5.06;100.00;99669.69;5055583;28;20473;-75
2023/11/24 01:55:16;;;;;;;2.80;0.83;;;;;;;4.91;100.00;99680.56;5055503;28;20465;-74
2023/11/24 01:57:43;;;;;;;1.80;0.30;;;;;;;4.84;100.00;99669.41;5055939;28;20541;-78
2023/11/24 02:00:13;;;;;;;1.80;0.40;;;;;;;4.63;100.00;99655.41;5056154;28;20450;-73
2023/11/24 02:02:40;;;;;;;1.80;0.30;;;;;;;4.53;100.00;99643.69;5055662;28;20850;-75
2023/11/24 02:05:07;;;;;;;1.73;0.30;;;;;;;4.51;100.00;99640.47;5055180;28;20463;-74
2023/11/24 02:07:36;;;;;;;1.80;0.40;;;;;;;4.45;100.00;99647.00;5055040;28;20856;-75
2023/11/24 02:10:03;;;;;;;1.70;0.30;;;;;;;4.46;100.00;99639.75;5055388;28;20431;-72
2023/11/24 02:12:30;;;;;;;1.80;0.40;;;;;;;4.47;100.00;99639.47;5055008;28;20517;-73
2023/11/24 02:14:57;;;;;;;1.77;0.30;;;;;;;4.46;100.00;99621.78;5054606;28;20827;-73
2023/11/24 02:17:23;;;;;;;1.73;0.30;;;;;;;4.32;100.00;99634.25;5055281;28;20789;-73
2023/11/24 02:19:52;;;;;;;1.80;0.40;;;;;;;4.30;100.00;99628.38;5054778;28;20477;-73
2023/11/24 02:22:18;;;;;;;1.70;0.30;;;;;;;4.27;100.00;99629.75;5054697;28;21008;-72
2023/11/24 02:24:46;;;;;;;1.73;0.30;;;;;;;4.23;100.00;99615.31;5054752;28;20549;-72
2023/11/24 02:27:13;;;;;;;2.00;0.50;;;;;;;4.22;100.00;99602.19;5054197;28;20496;-72
2023/11/24 02:29:40;;;;;;;1.70;0.30;;;;;;;4.25;100.00;99604.28;5054654;28;20438;-72
2023/11/24 02:32:08;;;;;;;1.70;0.30;;;;;;;4.22;100.00;99591.47;5055122;28;20539;-74
2023/11/24 02:34:34;;;;;;;1.80;0.40;;;;;;;4.24;100.00;99586.63;5054903;28;20512;-76
2023/11/24 02:37:02;;;;;;;1.77;0.30;;;;;;;4.20;100.00;99605.13;5054672;28;20529;-72
2023/11/24 02:39:36;;;;;;;1.80;0.40;;;;;;;4.30;100.00;99598.91;5054479;28;20508;-73
2023/11/24 02:42:05;;;;;;;1.70;0.30;;;;;;;4.33;100.00;99602.88;5054512;28;20474;-74
2023/11/24 02:44:31;;;;;;;1.73;0.40;;;;;;;4.32;100.00;99596.72;5054465;28;20460;-74
2023/11/24 02:46:59;;;;;;;1.70;0.30;;;;;;;4.35;100.00;99593.50;5054446;28;20477;-74
2023/11/24 02:49:26;;;;;;;1.70;0.30;;;;;;;4.34;100.00;99583.84;5054390;28;20475;-74
2023/11/24 02:51:54;;;;;;;1.80;0.40;;;;;;;4.40;100.00;99584.59;5054759;28;20541;-74
2023/11/24 02:54:20;;;;;;;2.10;0.40;;;;;;;4.38;100.00;99578.69;5054611;28;20484;-73
2023/11/24 02:56:47;;;;;;;1.70;0.30;;;;;;;4.42;100.00;99591.25;5054584;28;20438;-74
2023/11/24 02:59:15;;;;;;;1.70;0.30;;;;;;;4.50;100.00;99587.16;5053986;28;21003;-74
2023/11/24 03:01:42;;;;;;;1.80;0.40;;;;;;;4.53;100.00;99583.91;5054761;28;20466;-74
2023/11/24 03:04:08;;;;;;;2.00;0.57;;;;;;;4.53;100.00;99573.19;5054007;28;20493;-73
2023/11/24 03:06:40;;;;;;;1.77;0.40;;;;;;;4.55;100.00;99577.16;5054407;28;20473;-73
2023/11/24 03:09:09;;;;;;;1.80;0.37;;;;;;;4.60;100.00;99562.91;5053753;28;20533;-74
2023/11/24 03:11:36;;;;;;;1.70;0.30;;;;;;;4.57;100.00;99563.50;5054156;28;20446;-74
2023/11/24 03:14:02;;;;;;;1.70;0.40;;;;;;;4.60;100.00;99562.91;5053904;28;20497;-74
2023/11/24 03:16:30;;;;;;;1.80;0.40;;;;;;;4.58;100.00;99562.41;5054001;28;20438;-73
2023/11/24 03:18:57;;;;;;;1.70;0.30;;;;;;;4.65;100.00;99570.06;5054132;28;20957;-73
2023/11/24 03:21:24;;;;;;;1.80;0.40;;;;;;;4.71;100.00;99566.28;5054194;28;20481;-73
2023/11/24 03:23:50;;;;;;;3.13;0.70;;;;;;;4.67;100.00;99575.97;5053599;28;20520;-73
2023/11/24 03:26:17;;;;;;;2.00;0.60;;;;;;;4.73;100.00;99575.59;5053986;28;20474;-73
2023/11/24 03:28:44;;;;;;;1.80;0.40;;;;;;;4.76;100.00;99579.63;5053746;28;20474;-73
2023/11/24 03:31:10;;;;;;;1.77;0.40;;;;;;;4.78;100.00;99578.25;5054346;28;20446;-73
2023/11/24 03:33:38;;;;;;;1.70;0.30;;;;;;;4.88;100.00;99584.56;5053318;28;20485;-73
2023/11/24 03:36:05;;;;;;;1.90;0.40;;;;;;;4.94;100.00;99584.22;5054378;28;20469;-73
2023/11/24 03:38:32;;;;;;;2.10;0.70;;;;;;;4.98;100.00;99576.38;5053537;28;20529;-73
2023/11/24 03:40:58;;;;;;;1.70;0.30;;;;;;;5.06;100.00;99576.53;5052749;28;20516;-73
2023/11/24 03:43:25;;;;;;;1.73;0.30;;;;;;;5.12;100.00;99571.88;5053412;28;20924;-73
2023/11/24 03:45:52;;;;;;;1.90;0.50;;;;;;;5.19;100.00;99575.03;5053563;28;20446;-73
2023/11/24 03:48:21;;;;;;;1.70;0.30;;;;;;;5.22;100.00;99569.09;5053749;28;20443;-73
2023/11/24 03:50:51;;;;;;;1.70;0.30;;;;;;;5.20;100.00;99554.34;5053722;28;20545;-73
2023/11/24 03:53:17;;;;;;;4.23;0.70;;;;;;;5.26;100.00;99561.22;5053292;28;20530;-73
2023/11/24 03:55:44;;;;;;;2.10;0.60;;;;;;;5.28;100.00;99567.13;5053701;28;20434;-73
2023/11/24 03:58:11;;;;;;;2.97;0.83;;;;;;;5.25;100.00;99560.44;5053654;28;20462;-73
2023/11/24 04:00:38;;;;;;;1.77;0.40;;;;;;;5.36;100.00;99569.16;5053202;28;20841;-73
2023/11/24 04:03:04;;;;;;;2.27;0.40;;;;;;;5.40;100.00;99563.97;5053098;28;20514;-73
2023/11/24 04:05:31;;;;;;;1.80;0.40;;;;;;;5.44;100.00;99570.34;5053261;28;20496;-72
2023/11/24 04:07:59;;;;;;;2.43;0.70;;;;;;;5.47;100.00;99591.28;5052976;28;20450;-73
2023/11/24 04:10:26;;;;;;;2.43;0.50;;;;;;;5.49;100.00;99579.16;5052909;28;20886;-73
2023/11/24 04:12:53;;;;;;;2.00;0.77;;;;;;;5.45;100.00;99582.72;5053514;28;20537;-73
2023/11/24 04:15:20;;;;;;;1.70;0.30;;;;;;;5.42;100.00;99573.34;5053484;28;21080;-73
2023/11/24 04:17:47;;;;;;;2.00;0.40;;;;;;;5.39;100.00;99567.75;5053152;28;20442;-74
2023/11/24 04:20:14;;;;;;;1.77;0.37;;;;;;;5.37;100.00;99564.56;5053129;28;20624;-74
2023/11/24 04:22:41;;;;;;;2.67;2.00;;;;;;;5.39;100.00;99563.19;5052683;28;20448;-73
2023/11/24 04:25:10;;;;;;;1.80;0.43;;;;;;;5.36;100.00;99552.22;5052940;28;20472;-73
2023/11/24 04:27:37;;;;;;;1.73;0.40;;;;;;;5.29;100.00;99544.53;5053401;28;20446;-73
2023/11/24 04:30:04;;;;;;;1.73;0.40;;;;;;;5.26;100.00;99540.53;5053057;28;20567;-73
2023/11/24 04:32:31;;;;;;;1.70;0.30;;;;;;;5.31;100.00;99550.41;5053529;28;20446;-73
2023/11/24 04:34:58;;;;;;;2.10;0.57;;;;;;;5.27;100.00;99536.78;5053294;28;20462;-73
2023/11/24 04:37:24;;;;;;;2.10;0.63;;;;;;;5.17;100.00;99571.81;5053419;28;20792;-73
2023/11/24 04:39:52;;;;;;;2.20;0.70;;;;;;;5.10;100.00;99559.88;5052862;28;20786;-74
2023/11/24 04:42:20;;;;;;;2.10;0.60;;;;;;;4.99;100.00;99570.72;5052880;28;20450;-74
2023/11/24 04:44:47;;;;;;;1.70;0.30;;;;;;;4.91;100.00;99546.41;5052684;28;20489;-74
2023/11/24 04:47:13;;;;;;;1.70;0.30;;;;;;;4.85;100.00;99552.94;5053211;28;20469;-73
2023/11/24 04:49:40;;;;;;;1.70;0.40;;;;;;;4.80;100.00;99535.81;5052811;28;20453;-73
2023/11/24 04:52:07;;;;;;;1.80;0.33;;;;;;;4.81;100.00;99537.41;5055808;28;20466;-73
2023/11/24 04:54:33;;;;;;;1.80;0.40;;;;;;;4.77;100.00;99520.31;5056387;28;20450;-73
2023/11/24 04:57:00;;;;;;;1.70;0.33;;;;;;;4.73;100.00;99521.16;5056790;28;20477;-73
2023/11/24 04:59:28;;;;;;;1.70;0.30;;;;;;;4.74;100.00;99518.22;5056410;28;20442;-74
2023/11/24 05:01:55;;;;;;;1.70;0.30;;;;;;;4.66;100.00;99518.84;5056266;28;20470;-73
2023/11/24 05:04:21;;;;;;;1.70;0.30;;;;;;;4.71;100.00;99513.41;5056221;28;20486;-74
2023/11/24 05:06:48;;;;;;;3.23;1.37;;;;;;;4.76;100.00;99507.19;5056905;28;20533;-74
2023/11/24 05:09:16;;;;;;;1.70;0.30;;;;;;;4.74;100.00;99498.66;5055954;28;20493;-73
2023/11/24 05:11:43;;;;;;;1.80;0.40;;;;;;;4.69;100.00;99502.19;5056238;28;20496;-73
2023/11/24 05:14:10;;;;;;;2.50;0.50;;;;;;;4.69;100.00;99507.56;5055721;28;20885;-73
2023/11/24 05:16:37;;;;;;;1.80;0.40;;;;;;;4.69;100.00;99517.47;5056189;28;21064;-73
2023/11/24 05:19:04;;;;;;;1.80;0.30;;;;;;;4.68;100.00;99527.41;5056383;28;20437;-74
2023/11/24 05:21:31;;;;;;;1.80;0.40;;;;;;;4.70;100.00;99529.81;5055967;28;20934;-74
2023/11/24 05:23:57;;;;;;;1.77;0.40;;;;;;;4.73;100.00;99537.25;5056269;28;20574;-73
2023/11/24 05:26:24;;;;;;;1.73;0.37;;;;;;;4.73;100.00;99524.66;5055878;28;20521;-73
2023/11/24 05:28:51;;;;;;;1.70;0.30;;;;;;;4.72;100.00;99533.78;5055942;28;20496;-73
2023/11/24 05:31:17;;;;;;;2.97;0.63;;;;;;;4.69;100.00;99534.38;5056417;28;20490;-73
2023/11/24 05:33:45;;;;;;;1.70;0.30;;;;;;;4.66;100.00;99523.44;5055468;28;20486;-73
2023/11/24 05:36:12;;;;;;;1.80;0.40;;;;;;;4.70;100.00;99522.56;5055995;28;20517;-73
2023/11/24 05:38:39;;;;;;;1.97;0.60;;;;;;;4.71;100.00;99508.06;5055609;28;20525;-73
2023/11/24 05:41:06;;;;;;;2.20;1.07;;;;;;;4.77;100.00;99514.94;5055280;28;20446;-73
2023/11/24 05:43:34;;;;;;;1.73;0.30;;;;;;;4.76;100.00;99507.19;5055079;28;20922;-73
2023/11/24 05:46:00;;;;;;;2.10;0.60;;;;;;;4.79;100.00;99507.41;5055292;28;20492;-73
2023/11/24 05:48:28;;;;;;;1.77;0.30;;;;;;;4.85;100.00;99502.78;5055255;28;20438;-73
2023/11/24 05:50:58;;;;;;;1.80;0.40;;;;;;;4.92;100.00;99511.28;5054801;28;20438;-73
2023/11/24 05:53:25;;;;;;;2.30;0.90;;;;;;;4.88;100.00;99510.25;5055650;28;20466;-73
2023/11/24 05:55:51;;;;;;;1.70;0.37;;;;;;;4.89;100.00;99497.63;5055101;28;20525;-73
2023/11/24 05:58:18;;;;;;;1.70;0.30;;;;;;;4.87;100.00;99505.16;5055124;28;20525;-73
2023/11/24 06:00:45;;;;;;;1.90;0.50;;;;;;;4.89;100.00;99503.78;5054628;28;20926;-73
2023/11/24 06:03:11;;;;;;;1.70;0.30;;;;;;;4.95;100.00;99493.78;5053799;28;20445;-73
2023/11/24 06:05:38;;;;;;;1.90;0.63;;;;;;;4.96;100.00;99496.19;5054809;28;20438;-73
2023/11/24 06:08:06;;;;;;;1.70;0.30;;;;;;;5.00;100.00;99488.31;5055026;28;20454;-73
2023/11/24 06:10:33;;;;;;;1.70;0.30;;;;;;;4.96;100.00;99492.72;5055208;28;20533;-73
2023/11/24 06:13:00;;;;;;;1.77;0.40;;;;;;;4.90;100.00;99491.97;5054668;28;20934;-73
2023/11/24 06:15:27;;;;;;;1.97;0.47;;;;;;;4.92;100.00;99491.69;5054795;28;20458;-73
2023/11/24 06:17:53;;;;;;;1.70;0.30;;;;;;;4.89;100.00;99486.91;5054195;28;20926;-73
2023/11/24 06:20:20;;;;;;;1.70;0.40;;;;;;;4.91;100.00;99473.97;5054778;28;20450;-73
2023/11/24 06:22:47;;;;;;;1.80;0.40;;;;;;;4.90;100.00;99483.91;5054480;28;20470;-73
2023/11/24 06:25:15;;;;;;;1.80;0.30;;;;;;;4.84;100.00;99469.00;5054492;28;20543;-73
2023/11/24 06:27:42;;;;;;;2.50;1.50;;;;;;;4.87;100.00;99478.31;5054362;28;20454;-73
2023/11/24 06:30:09;;;;;;;1.70;0.30;;;;;;;4.90;100.00;99480.44;5054714;28;20516;-73
2023/11/24 06:32:36;;;;;;;1.80;0.40;;;;;;;4.89;100.00;99465.44;5054801;28;20433;-72
2023/11/24 06:35:06;;;;;;;1.70;0.30;;;;;;;4.96;100.00;99473.94;5054488;28;20504;-73
2023/11/24 06:37:33;;;;;;;1.80;0.40;;;;;;;4.95;100.00;99475.78;5054173;28;20442;-73
2023/11/24 06:39:59;;;;;;;1.73;0.40;;;;;;;4.98;100.00;99469.84;5054440;28;20529;-73
2023/11/24 06:42:28;;;;;;;2.33;0.70;;;;;;;5.01;100.00;99476.53;5054254;28;20533;-73
2023/11/24 06:44:55;;;;;;;1.70;0.30;;;;;;;5.09;100.00;99472.38;5054237;28;20492;-73
2023/11/24 06:47:23;;;;;;;1.70;0.30;;;;;;;5.07;100.00;99475.34;5054337;28;20447;-72
2023/11/24 06:49:50;;;;;;;2.33;0.50;;;;;;;5.14;99.28;99470.44;5054145;28;20887;-73
2023/11/24 06:52:17;;;;;;;1.80;0.50;;;;;;;5.09;99.96;99478.56;5054601;28;20492;-73
2023/11/24 06:54:44;;;;;;;1.80;0.40;;;;;;;5.13;99.66;99470.69;5054177;28;20465;-73
2023/11/24 06:57:11;;;;;;;1.70;0.30;;;;;;;5.16;98.42;99476.28;5054172;28;20437;-73
2023/11/24 06:59:39;;;;;;;2.00;0.60;;;;;;;5.14;98.59;99486.53;5054081;28;20839;-72
2023/11/24 07:02:06;;;;;;;3.17;0.47;;;;;;;5.15;98.48;99487.31;5054079;28;20517;-72
2023/11/24 07:04:33;;;;;;;2.00;0.50;;;;;;;5.10;97.94;99490.09;5053863;28;20482;-74
2023/11/24 07:07:00;;;;;;;1.70;0.30;;;;;;;5.14;98.14;99513.38;5054707;28;20525;-71
2023/11/24 07:09:26;;;;;;;2.43;0.57;;;;;;;5.17;97.53;99493.97;5068938;22;20494;-72
2023/11/24 07:11:53;;;;;;;2.13;0.57;;;;;;;5.11;98.05;99491.69;5057010;28;20533;-70
2023/11/24 07:14:20;;;;;;;1.80;0.40;;;;;;;5.18;97.18;99492.91;5054664;28;21004;-69
2023/11/24 07:16:48;;;;;;;1.77;0.40;;;;;;;5.23;97.22;99498.19;5054668;28;20489;-71
2023/11/24 07:19:16;;;;;;;1.80;0.40;;;;;;;5.25;95.73;99492.53;5054763;28;20449;-69
2023/11/24 07:21:43;;;;;;;2.00;0.53;;;;;;;5.26;95.58;99499.47;5054787;28;20529;-68
2023/11/24 07:24:10;;;;;;;1.70;0.40;;;;;;;5.23;94.78;99503.56;5054745;28;21006;-68
2023/11/24 07:26:37;;;;;;;1.80;0.40;;;;;;;5.24;95.07;99491.72;5054772;28;20516;-69
2023/11/24 07:29:04;;;;;;;1.73;0.30;;;;;;;5.20;96.13;99489.91;5054907;28;20443;-70
2023/11/24 07:31:30;;;;;;;1.70;0.40;;;;;;;5.14;95.25;99486.53;5054799;28;20442;-69
2023/11/24 07:33:58;;;;;;;1.73;0.33;;;;;;;5.16;95.15;99483.53;5054451;28;20463;-68
2023/11/24 07:36:25;;;;;;;2.17;0.73;;;;;;;5.14;94.88;99477.69;5054427;28;20473;-69
2023/11/24 07:38:52;;;;;;;4.47;0.70;;;;;;;5.05;95.48;99477.53;5054390;28;20442;-69
2023/11/24 07:41:19;;;;;;;2.00;0.70;;;;;;;4.96;95.56;99485.44;5054515;28;20481;-69
2023/11/24 07:43:45;;;;;;;1.90;0.40;;;;;;;5.00;95.59;99488.31;5054164;28;20490;-69
2023/11/24 07:46:12;;;;;;;1.77;0.37;;;;;;;5.04;94.97;99487.44;5054422;28;20443;-67
2023/11/24 07:48:39;;;;;;;2.60;0.57;;;;;;;5.02;95.10;99484.28;5053893;28;20867;-69
2023/11/24 07:51:07;;;;;;;1.77;0.30;;;;;;;4.96;95.80;99476.59;5054037;28;20474;-68
2023/11/24 07:53:34;;;;;;;1.70;0.30;;;;;;;4.97;96.24;99470.16;5053591;28;20541;-68
2023/11/24 07:56:01;;;;;;;2.10;0.80;;;;;;;4.92;96.76;99478.28;5053617;28;20933;-68
2023/11/24 07:58:29;;;;;;;1.70;0.30;;;;;;;4.97;95.84;99475.50;5054005;28;20844;-68
2023/11/24 08:00:56;;;;;;;1.73;0.37;;;;;;;4.99;96.12;99486.75;5053407;28;20469;-69
2023/11/24 08:03:24;;;;;;;1.70;0.30;;;;;;;4.95;97.01;99483.84;5054013;28;20991;-68
2023/11/24 08:05:52;;;;;;;1.70;0.30;;;;;;;5.04;96.09;99490.13;5053622;28;20490;-68
2023/11/24 08:08:20;;;;;;;1.70;0.30;;;;;;;5.14;95.29;99499.16;5053187;28;20500;-68
2023/11/24 08:10:47;;;;;;;1.73;0.30;;;;;;;5.13;94.99;99492.16;5053836;28;20446;-68
2023/11/24 08:13:13;;;;;;;5.50;0.80;;;;;;;5.10;94.40;99484.72;5053519;28;20480;-68
2023/11/24 08:15:40;;;;;;;1.70;0.30;;;;;;;5.07;95.22;99483.41;5052984;28;20473;-68
2023/11/24 08:18:07;;;;;;;1.70;0.30;;;;;;;5.08;95.53;99490.34;5052930;28;20524;-68
2023/11/24 08:20:33;;;;;;;1.70;0.40;;;;;;;5.16;94.49;99491.59;5053269;28;20526;-67
2023/11/24 08:23:00;;;;;;;1.80;0.40;;;;;;;5.21;93.29;99484.25;5053175;28;20871;-68
2023/11/24 08:25:28;;;;;;;1.77;0.40;;;;;;;5.12;94.64;99477.16;5054098;28;20903;-68
2023/11/24 08:27:55;;;;;;;1.70;0.30;;;;;;;5.11;94.25;99479.06;5057015;28;20435;-68
2023/11/24 08:30:21;;;;;;;1.70;0.30;;;;;;;5.14;94.05;99478.47;5056620;28;21025;-68
2023/11/24 08:32:49;;;;;;;1.90;0.40;;;;;;;5.19;93.16;99451.56;5056963;28;20529;-69
2023/11/24 08:35:16;;;;;;;1.77;0.37;;;;;;;5.13;95.01;99471.50;5057213;28;20462;-68
2023/11/24 08:37:42;;;;;;;2.10;0.50;;;;;;;5.17;93.49;99474.41;5056863;28;20453;-68
2023/11/24 08:40:14;;;;;;;1.70;0.40;;;;;;;5.24;93.39;99464.09;5056773;28;20496;-67
2023/11/24 08:42:42;;;;;;;1.80;0.40;;;;;;;5.21;93.50;99476.19;5056821;28;20446;-68
2023/11/24 08:45:09;;;;;;;1.70;0.30;;;;;;;5.21;93.03;99478.09;5056751;28;20815;-68
2023/11/24 08:47:36;;;;;;;1.77;0.40;;;;;;;5.25;93.19;99471.84;5056353;28;20864;-70
2023/11/24 08:50:03;;;;;;;1.70;0.30;;;;;;;5.24;93.21;99472.94;5056308;28;20477;-68
2023/11/24 08:52:29;;;;;;;1.83;0.40;;;;;;;5.27;93.01;99464.31;5057085;28;20474;-69
2023/11/24 08:54:56;;;;;;;3.80;1.43;;;;;;;5.29;93.17;99464.78;5056535;28;20454;-69
2023/11/24 08:57:23;;;;;;;1.70;0.30;;;;;;;5.30;93.08;99469.06;5056270;28;20457;-69
2023/11/24 08:59:51;;;;;;;1.70;0.30;;;;;;;5.33;92.77;99462.34;5056535;28;20469;-69
2023/11/24 09:02:18;;;;;;;1.70;0.30;;;;;;;5.36;92.00;99466.28;5056393;28;20449;-69
2023/11/24 09:04:45;;;;;;;1.90;0.50;;;;;;;5.39;91.49;99471.88;5056350;28;20929;-69
2023/11/24 09:07:12;;;;;;;1.70;0.30;;;;;;;5.45;90.31;99464.56;5055992;28;21032;-68
2023/11/24 09:09:38;;;;;;;2.20;0.53;;;;;;;5.49;89.99;99462.84;5056036;28;20836;-68
2023/11/24 09:12:06;;;;;;;1.80;0.50;;;;;;;5.48;90.57;99461.25;5056119;28;20446;-68
2023/11/24 09:14:38;;;;;;;1.70;0.30;;;;;;;5.48;90.42;99463.94;5056621;28;20494;-68
2023/11/24 09:17:06;;;;;;;5.60;1.13;;;;;;;5.42;89.79;99457.88;5056230;28;20498;-69
2023/11/24 09:19:33;;;;;;;1.80;0.40;;;;;;;5.47;91.11;99465.06;5056156;28;20496;-69
2023/11/24 09:22:03;;;;;;;1.70;0.30;;;;;;;5.52;89.79;99456.91;5056402;28;20537;-68
2023/11/24 09:24:30;;;;;;;1.83;0.50;;;;;;;5.46;90.77;99450.03;5055993;28;20462;-68
2023/11/24 09:26:56;;;;;;;1.80;0.40;;;;;;;5.53;90.91;99439.69;5055571;28;20449;-68
2023/11/24 09:29:25;;;;;;;1.70;0.30;;;;;;;5.65;89.16;99436.53;5056150;28;20525;-68
2023/11/24 09:31:52;;;;;;;1.73;0.40;;;;;;;5.69;88.88;99432.97;5056140;28;20452;-67
2023/11/24 09:34:20;;;;;;;1.70;0.30;;;;;;;5.71;88.04;99433.47;5055371;28;20454;-68
2023/11/24 09:36:46;;;;;;;2.00;0.60;;;;;;;5.65;87.50;99436.53;5054821;28;20529;-68
2023/11/24 09:39:17;;;;;;;1.70;0.30;;;;;;;5.67;88.08;99453.97;5055802;28;20504;-68
2023/11/24 09:41:48;;;;;;;1.70;0.40;;;;;;;5.63;87.87;99423.41;5055685;28;20448;-68
2023/11/24 09:44:16;;;;;;;1.70;0.40;;;;;;;5.71;88.33;99417.34;5055422;28;20824;-68
2023/11/24 09:46:44;;;;;;;1.80;0.40;;;;;;;5.87;88.22;99412.47;5055557;28;20580;-68
2023/11/24 09:49:11;;;;;;;2.20;0.70;;;;;;;5.88;88.02;99424.81;5055761;28;20445;-69
2023/11/24 09:51:40;;;;;;;1.73;0.30;;;;;;;5.96;87.79;99420.66;5055286;28;20434;-68
2023/11/24 09:54:10;;;;;;;1.80;0.40;;;;;;;5.99;86.58;99403.94;5055584;28;20512;-68
2023/11/24 09:56:40;;;;;;;1.77;0.40;;;;;;;6.00;86.60;99398.25;5055619;28;20445;-68
2023/11/24 09:59:08;;;;;;;1.70;0.30;;;;;;;5.94;86.70;99406.75;5055135;28;20871;-68
2023/11/24 10:01:37;;;;;;;1.70;0.30;;;;;;;5.86;85.50;99405.50;5055538;28;20442;-68
2023/11/24 10:04:06;;;;;;;1.80;0.40;;;;;;;5.80;86.40;99396.75;5055344;28;20462;-69
2023/11/24 10:06:33;;;;;;;2.13;0.70;;;;;;;5.79;87.24;99394.34;5055213;28;20568;-68
2023/11/24 10:09:05;;;;;;;1.70;0.30;;;;;;;5.87;86.15;99385.59;5054347;28;20446;-67
2023/11/24 10:11:33;;;;;;;2.40;0.73;;;;;;;5.87;84.80;99374.06;5054456;28;20530;-68
2023/11/24 10:14:01;;;;;;;1.70;0.30;;;;;;;5.89;85.27;99370.00;5054251;28;20462;-69
2023/11/24 10:16:27;;;;;;;1.70;0.40;;;;;;;5.97;85.00;99368.50;5054738;28;20457;-72
2023/11/24 10:18:55;;;;;;;1.73;0.40;;;;;;;5.94;85.80;99369.13;5053967;28;20956;-68
2023/11/24 10:21:22;;;;;;;1.80;0.50;;;;;;;6.11;85.71;99363.91;5054102;28;20462;-68
2023/11/24 10:23:50;;;;;;;1.80;0.30;;;;;;;6.15;84.08;99370.25;5054035;28;20458;-69
2023/11/24 10:26:18;;;;;;;2.00;0.70;;;;;;;6.17;83.82;99364.59;5054284;28;20482;-70
2023/11/24 10:28:45;;;;;;;1.83;0.43;;;;;;;6.17;84.41;99361.91;5054332;28;20477;-70
2023/11/24 10:31:13;;;;;;;1.90;0.50;;;;;;;6.10;84.19;99356.94;5054800;28;20435;-71
2023/11/24 10:33:40;;;;;;;2.10;0.60;;;;;;;6.18;82.67;99350.84;5053890;28;20468;-69
2023/11/24 10:36:08;;;;;;;1.70;0.30;;;;;;;6.15;83.22;99338.00;5053574;28;20442;-69
2023/11/24 10:38:35;;;;;;;2.33;0.60;;;;;;;6.16;82.23;99353.06;5053670;28;20444;-70
2023/11/24 10:41:03;;;;;;;1.77;0.30;;;;;;;6.21;83.57;99336.81;5053734;28;20808;-70
2023/11/24 10:43:33;;;;;;;2.07;0.97;;;;;;;6.40;82.24;99336.66;5053241;28;20473;-69
2023/11/24 10:46:02;;;;;;;1.80;0.40;;;;;;;6.40;82.02;99333.16;5053497;28;20977;-69
2023/11/24 10:48:34;;;;;;;1.70;0.30;;;;;;;6.42;82.35;99328.28;5052782;28;20536;-70
2023/11/24 10:51:06;;;;;;;1.73;0.40;;;;;;;6.35;81.52;99317.94;5053297;28;20993;-70
2023/11/24 10:53:35;;;;;;;1.80;0.40;;;;;;;6.43;81.88;99311.06;5053472;28;20462;-70
2023/11/24 10:56:04;;;;;;;1.70;0.30;;;;;;;6.46;81.22;99302.34;5053528;28;20521;-70
2023/11/24 10:58:34;;;;;;;1.80;0.30;;;;;;;6.45;80.63;99300.78;5053508;28;20434;-70
2023/11/24 11:01:02;;;;;;;1.80;0.40;;;;;;;6.51;79.24;99305.75;5053428;28;20433;-69
2023/11/24 11:03:30;;;;;;;2.17;0.67;;;;;;;6.47;78.93;99301.28;5053519;28;20462;-69
2023/11/24 11:06:10;;;;;;;1.77;0.30;;;;;;;6.55;78.97;99298.66;5053453;28;20568;-70
2023/11/24 11:08:42;;;;;;;1.70;0.30;;;;;;;6.56;77.46;99296.75;5011523;28;1203933;-69
2023/11/24 11:11:44;;;;;;;1.83;0.43;;;;;;;6.42;77.57;99296.00;5054154;28;20223;-70
2023/11/24 11:14:15;;;;;;;1.70;0.30;;;;;;;6.29;77.82;99294.97;5040422;28;20539;-70
2023/11/24 11:16:44;;;;;;;1.80;0.50;;;;;;;6.27;79.10;99283.72;5054180;28;20494;-69
2023/11/24 11:19:29;;;;;;;1.80;0.40;;;;;;;6.32;78.63;99295.13;5053745;28;20445;-69
2023/11/24 11:21:59;;;;;;;1.77;0.40;;;;;;;6.55;78.42;99287.88;5053712;28;20433;-70
2023/11/24 11:24:28;;;;;;;1.70;0.30;;;;;;;6.97;79.70;99293.03;5053910;28;20470;-70
2023/11/24 11:26:57;;;;;;;3.60;0.77;;;;;;;8.19;75.81;99288.78;5054051;28;20833;-71
2023/11/24 11:29:28;;;;;;;1.80;0.40;;;;;;;9.11;68.46;99289.31;5053808;28;20482;-70
2023/11/24 11:31:55;;;;;;;5.30;1.37;;;;;;;9.56;65.23;99295.03;5053949;28;20774;-70
2023/11/24 11:34:29;;;;;;;4.13;0.50;;;;;;;9.70;62.77;99296.72;5053750;28;20458;-70
2023/11/24 11:37:11;;;;;;;1.80;0.30;;;;;;;9.99;62.25;99285.06;5053896;28;20427;-70
2023/11/24 11:39:43;;;;;;;1.80;0.40;;;;;;;9.88;62.85;99276.56;5053837;28;20432;-70
2023/11/24 11:42:11;;;;;;;1.80;0.40;;;;;;;10.18;63.03;99276.47;5053492;28;20948;-70